Time;durP1;ratioP1;P1;durP2;ratioP2;P2;SDS_P1;SDS_P2;PMS_P1;PMS_P2;Temp;Humidity;BMP_temperature;BMP_pressure;BME280_temperature;BME280_humidity;BME280_pressure;Samples;Min_cycle;Max_cycle;Signal;HPM_P1;HPM_P2
2022/08/26 00:00:05;;;;;;;388.87;326.23;;;;;;;26.51;55.04;98906.59;324517;30;2017;-76
2022/08/26 00:00:16;;;;;;;389.95;326.23;;;;;;;26.52;55.20;98903.75;328444;29;2696;-76
2022/08/26 00:00:27;;;;;;;391.13;325.23;;;;;;;26.53;55.17;98909.94;328405;30;2409;-76
2022/08/26 00:00:37;;;;;;;389.23;323.05;;;;;;;26.55;55.22;98907.09;327939;29;2534;-76
2022/08/26 00:00:48;;;;;;;388.80;326.02;;;;;;;26.55;55.44;98905.22;329279;30;1272;-77
2022/08/26 00:00:58;;;;;;;388.43;327.07;;;;;;;26.56;55.20;98909.59;326531;30;2586;-76
2022/08/26 00:01:09;;;;;;;388.38;325.25;;;;;;;26.57;55.38;98905.06;327830;30;2774;-76
2022/08/26 00:01:19;;;;;;;389.60;327.20;;;;;;;26.57;55.35;98905.88;326692;30;1905;-76
2022/08/26 00:01:31;;;;;;;392.02;332.05;;;;;;;26.57;55.39;98911.25;324449;30;1254;-76
2022/08/26 00:01:41;;;;;;;392.05;336.17;;;;;;;26.56;55.53;98909.59;324848;30;1752;-76
2022/08/26 00:01:52;;;;;;;394.58;334.88;;;;;;;26.58;55.45;98907.56;326323;30;1673;-76
2022/08/26 00:02:03;;;;;;;395.33;335.42;;;;;;;26.55;55.38;98907.91;324569;30;1361;-78
2022/08/26 00:02:13;;;;;;;399.40;336.53;;;;;;;26.56;55.73;98906.06;320782;30;3600;-78
2022/08/26 00:02:24;;;;;;;396.52;335.33;;;;;;;26.54;55.29;98911.63;325591;29;3037;-78
2022/08/26 00:02:34;;;;;;;397.00;335.67;;;;;;;26.56;55.30;98912.25;327444;29;3218;-78
2022/08/26 00:02:45;;;;;;;394.58;335.65;;;;;;;26.55;55.33;98917.81;326291;30;1574;-78
2022/08/26 00:02:55;;;;;;;394.67;340.20;;;;;;;26.56;55.43;98909.59;322871;30;3336;-78
2022/08/26 00:03:06;;;;;;;393.50;341.45;;;;;;;26.55;55.26;98902.53;319780;30;3561;-78
2022/08/26 00:03:17;;;;;;;393.05;337.75;;;;;;;26.59;55.29;98908.38;319743;30;1376;-77
2022/08/26 00:03:27;;;;;;;399.40;335.90;;;;;;;26.59;55.12;98901.16;325556;30;3495;-77
2022/08/26 00:03:38;;;;;;;403.40;335.00;;;;;;;26.58;55.08;98904.88;323271;30;2391;-77
2022/08/26 00:03:48;;;;;;;403.33;332.80;;;;;;;26.60;54.90;98907.38;322074;30;1229;-77
2022/08/26 00:04:00;;;;;;;398.50;328.98;;;;;;;26.60;55.14;98899.31;325055;30;2004;-77
2022/08/26 00:04:10;;;;;;;392.70;320.95;;;;;;;26.59;55.02;98901.16;323343;30;2488;-77
2022/08/26 00:04:22;;;;;;;391.63;327.83;;;;;;;26.57;55.41;98895.16;322004;30;3450;-77
2022/08/26 00:04:33;;;;;;;391.95;333.15;;;;;;;26.58;55.09;98894.13;320951;30;1312;-77
2022/08/26 00:04:43;;;;;;;392.70;334.08;;;;;;;26.57;55.37;98897.81;317659;30;4599;-77
2022/08/26 00:04:53;;;;;;;393.85;329.95;;;;;;;26.59;55.33;98898.47;318162;30;4183;-77
2022/08/26 00:05:04;;;;;;;393.33;330.23;;;;;;;26.58;55.38;98891.44;317672;30;4396;-77
2022/08/26 00:05:15;;;;;;;394.77;333.60;;;;;;;26.58;55.33;98886.06;315076;31;1371;-77
2022/08/26 00:05:25;;;;;;;402.20;332.70;;;;;;;26.60;54.96;98889.41;313389;31;4254;-77
2022/08/26 00:05:36;;;;;;;404.35;331.75;;;;;;;26.60;54.84;98888.56;312531;31;4575;-77
2022/08/26 00:05:46;;;;;;;403.23;328.93;;;;;;;26.60;55.10;98888.56;311771;31;1217;-77
2022/08/26 00:05:57;;;;;;;397.20;326.73;;;;;;;26.60;55.38;98888.56;312360;31;3365;-77
2022/08/26 00:06:07;;;;;;;394.57;327.83;;;;;;;26.59;55.38;98885.06;307594;31;3303;-77
2022/08/26 00:06:18;;;;;;;395.65;331.35;;;;;;;26.57;55.08;98889.78;307420;32;1112;-77
2022/08/26 00:06:29;;;;;;;392.63;337.85;;;;;;;26.55;55.47;98883.75;306480;32;3891;-76
2022/08/26 00:06:40;;;;;;;390.98;335.48;;;;;;;26.56;55.42;98882.75;308212;31;4871;-76
2022/08/26 00:06:51;;;;;;;391.00;337.00;;;;;;;26.57;55.16;98884.41;305523;32;5363;-76
2022/08/26 00:07:02;;;;;;;393.70;335.10;;;;;;;26.58;55.43;98885.25;300149;32;1305;-76
2022/08/26 00:07:13;;;;;;;395.45;331.60;;;;;;;26.57;55.27;98887.09;301841;32;6266;-77
2022/08/26 00:07:23;;;;;;;396.50;328.90;;;;;;;26.58;55.58;98879.88;303723;32;6536;-77
2022/08/26 00:07:34;;;;;;;395.77;330.47;;;;;;;26.56;55.02;98892.66;301248;32;5800;-77
2022/08/26 00:07:44;;;;;;;391.52;330.75;;;;;;;26.54;55.50;98890.13;299958;32;1349;-76
2022/08/26 00:07:56;;;;;;;389.33;330.70;;;;;;;26.55;55.98;98886.44;297027;32;6625;-76
2022/08/26 00:08:06;;;;;;;389.08;327.75;;;;;;;26.54;55.78;98884.78;295250;32;5559;-76
2022/08/26 00:08:18;;;;;;;394.85;320.90;;;;;;;26.53;55.85;98885.78;297137;33;932;-77
2022/08/26 00:08:28;;;;;;;396.85;319.42;;;;;;;26.53;55.53;98877.72;298632;32;4238;-77
2022/08/26 00:08:39;;;;;;;397.37;326.40;;;;;;;26.54;55.75;98882.09;295735;33;5537;-77
2022/08/26 00:08:49;;;;;;;395.13;332.98;;;;;;;26.53;55.28;98872.38;290991;33;6316;-77
2022/08/26 00:09:00;;;;;;;395.17;339.80;;;;;;;26.55;55.48;98875.69;295183;33;839;-77
2022/08/26 00:09:10;;;;;;;393.77;334.63;;;;;;;26.55;55.53;98875.69;296322;33;7499;-77
2022/08/26 00:09:21;;;;;;;391.30;332.17;;;;;;;26.57;55.21;98873.66;295895;32;9295;-77
2022/08/26 00:09:32;;;;;;;388.70;328.92;;;;;;;26.57;55.26;98879.03;296040;33;1265;-77
2022/08/26 00:09:42;;;;;;;387.17;325.52;;;;;;;26.57;55.18;98875.53;290911;33;8671;-77
2022/08/26 00:09:53;;;;;;;388.43;326.50;;;;;;;26.55;55.61;98875.69;291400;33;8281;-77
2022/08/26 00:12:12;;;;;;;376.13;306.01;;;;;;;26.57;55.87;98881.72;2494309;27;20555;-76
2022/08/26 00:12:22;;;;;;;386.87;331.40;;;;;;;26.56;55.78;98876.53;351591;28;1207;-76
2022/08/26 00:12:33;;;;;;;386.85;329.88;;;;;;;26.53;55.96;98883.09;347624;28;1258;-76
2022/08/26 00:12:43;;;;;;;391.47;335.30;;;;;;;26.50;55.70;98888.84;350348;28;1211;-76
2022/08/26 00:12:54;;;;;;;392.90;334.08;;;;;;;26.47;55.72;98884.66;348939;28;1457;-76
2022/08/26 00:13:05;;;;;;;394.43;331.10;;;;;;;26.48;56.09;98880.13;348855;28;1305;-76
2022/08/26 00:13:15;;;;;;;390.30;321.20;;;;;;;26.49;55.74;98881.78;350372;28;1349;-76
2022/08/26 00:13:26;;;;;;;387.20;313.40;;;;;;;26.49;55.69;98877.25;348968;28;1388;-76
2022/08/26 00:13:37;;;;;;;385.73;310.90;;;;;;;26.51;55.69;98882.44;346242;28;883;-76
2022/08/26 00:13:47;;;;;;;391.17;319.93;;;;;;;26.51;55.65;98879.75;347719;28;1299;-76
2022/08/26 00:13:58;;;;;;;391.90;326.65;;;;;;;26.53;56.07;98888.47;350333;28;1333;-76
2022/08/26 00:14:08;;;;;;;394.63;331.03;;;;;;;26.55;55.66;98885.59;350477;28;3495;-77
2022/08/26 00:14:19;;;;;;;392.48;330.55;;;;;;;26.55;55.69;98881.06;348857;28;1196;-77
2022/08/26 00:14:29;;;;;;;396.50;336.10;;;;;;;26.57;55.38;98883.56;350315;28;1395;-77
2022/08/26 00:14:40;;;;;;;394.52;336.83;;;;;;;26.56;55.63;98882.75;347504;28;1299;-77
2022/08/26 00:14:50;;;;;;;388.67;330.30;;;;;;;26.56;55.59;98877.38;350362;28;1156;-77
2022/08/26 00:15:01;;;;;;;387.33;326.23;;;;;;;26.58;55.41;98883.38;349049;28;943;-77
2022/08/26 00:15:13;;;;;;;392.03;324.13;;;;;;;26.59;55.24;98887.75;348924;28;961;-77
2022/08/26 00:15:23;;;;;;;398.88;325.33;;;;;;;26.59;55.51;98885.06;348854;28;1288;-77
2022/08/26 00:15:34;;;;;;;397.17;323.23;;;;;;;26.59;55.15;98885.06;350224;28;1413;-77
2022/08/26 00:15:45;;;;;;;396.25;327.92;;;;;;;26.57;55.30;98878.22;347607;28;1764;-77
2022/08/26 00:15:56;;;;;;;398.00;330.38;;;;;;;26.59;55.32;98885.06;346129;28;1402;-77
2022/08/26 00:16:06;;;;;;;396.60;327.42;;;;;;;26.59;55.46;98884.22;346580;28;1275;-77
2022/08/26 00:16:17;;;;;;;393.97;324.53;;;;;;;26.57;55.35;98889.78;343803;28;1332;-77
2022/08/26 00:16:28;;;;;;;388.77;323.02;;;;;;;26.57;55.37;98886.25;344852;28;860;-77
2022/08/26 00:16:38;;;;;;;388.73;322.45;;;;;;;26.56;55.87;98885.41;344810;28;996;-77
2022/08/26 00:16:49;;;;;;;384.83;316.33;;;;;;;26.58;55.69;98886.06;344438;28;970;-77
2022/08/26 00:16:59;;;;;;;384.95;319.77;;;;;;;26.58;56.03;98885.25;343446;28;1224;-77
2022/08/26 00:17:10;;;;;;;385.07;322.20;;;;;;;26.57;55.54;98884.41;346091;28;1335;-77
2022/08/26 00:17:20;;;;;;;389.08;325.23;;;;;;;26.52;55.89;98886.81;343544;28;1051;-77
2022/08/26 00:17:31;;;;;;;390.30;326.13;;;;;;;26.51;55.73;98879.75;344728;28;1336;-77
2022/08/26 00:17:41;;;;;;;391.63;328.38;;;;;;;26.51;55.80;98885.97;343426;28;1221;-77
2022/08/26 00:17:55;;;;;;;391.48;330.70;;;;;;;26.52;55.63;98884.94;347414;28;864;-77
2022/08/26 00:18:06;;;;;;;393.07;329.90;;;;;;;26.52;55.29;98882.28;343261;28;1582;-77
2022/08/26 00:18:17;;;;;;;392.63;330.88;;;;;;;26.51;55.29;98874.41;345521;28;1204;-77
2022/08/26 00:18:27;;;;;;;393.08;327.80;;;;;;;26.55;55.33;98885.59;346314;28;3109;-77
2022/08/26 00:18:38;;;;;;;393.70;326.33;;;;;;;26.55;55.13;98880.25;344411;28;1128;-77
2022/08/26 00:18:48;;;;;;;391.48;321.83;;;;;;;26.57;55.63;98884.41;345078;28;1225;-77
2022/08/26 00:18:59;;;;;;;391.33;323.27;;;;;;;26.58;55.19;98882.56;346144;28;1220;-77
2022/08/26 00:19:09;;;;;;;391.23;326.00;;;;;;;26.57;55.43;98883.56;342010;28;1345;-77
2022/08/26 00:19:20;;;;;;;396.33;331.93;;;;;;;26.58;55.32;98886.06;343518;28;1323;-77
2022/08/26 00:19:30;;;;;;;396.50;330.17;;;;;;;26.57;55.52;98884.41;344757;28;1233;-77
2022/08/26 00:19:41;;;;;;;394.10;330.80;;;;;;;26.59;55.34;98881.53;346216;28;903;-76
2022/08/26 00:19:51;;;;;;;393.90;332.43;;;;;;;26.58;55.02;98882.56;346288;28;931;-76
2022/08/26 00:20:04;;;;;;;390.83;334.00;;;;;;;26.58;55.52;98883.38;346085;28;1403;-76
2022/08/26 00:20:17;;;;;;;388.45;327.23;;;;;;;26.58;54.98;98880.72;344792;28;1308;-76
2022/08/26 00:20:30;;;;;;;387.00;323.75;;;;;;;26.59;55.13;98884.22;339388;29;1333;-76
2022/08/26 00:20:40;;;;;;;392.15;327.88;;;;;;;26.58;55.50;98882.56;336749;29;3909;-76
2022/08/26 00:20:51;;;;;;;390.93;329.13;;;;;;;26.58;55.45;98885.25;338092;29;1689;-76
2022/08/26 00:21:01;;;;;;;392.20;333.38;;;;;;;26.59;55.53;98886.91;336234;29;1737;-76
2022/08/26 00:21:12;;;;;;;389.85;331.65;;;;;;;26.59;55.75;98886.91;336656;29;1230;-76
2022/08/26 00:21:23;;;;;;;396.43;330.60;;;;;;;26.59;55.54;98885.06;335674;29;913;-76
2022/08/26 00:21:34;;;;;;;395.88;325.75;;;;;;;26.58;55.79;98886.06;336185;29;1330;-76
2022/08/26 00:21:45;;;;;;;398.92;326.73;;;;;;;26.55;55.52;98886.44;335743;29;802;-76
2022/08/26 00:21:55;;;;;;;396.27;325.60;;;;;;;26.57;55.59;98894.31;335557;29;1464;-76
2022/08/26 00:22:06;;;;;;;395.20;321.85;;;;;;;26.56;55.51;98882.75;334791;29;1414;-76
2022/08/26 00:22:16;;;;;;;389.07;323.33;;;;;;;26.57;55.45;98892.47;334218;29;1707;-76
2022/08/26 00:22:27;;;;;;;387.40;325.45;;;;;;;26.57;55.54;98889.78;335549;29;1168;-76
2022/08/26 00:22:37;;;;;;;388.87;328.97;;;;;;;26.56;55.42;98888.09;331577;29;1843;-76
2022/08/26 00:22:48;;;;;;;391.25;325.85;;;;;;;26.57;55.34;98891.63;332977;29;2091;-76
2022/08/26 00:22:58;;;;;;;391.23;330.70;;;;;;;26.56;55.87;98888.09;329422;30;791;-76
2022/08/26 00:23:09;;;;;;;388.75;331.42;;;;;;;26.55;55.82;98891.81;330094;29;2247;-76
2022/08/26 00:23:19;;;;;;;387.73;329.83;;;;;;;26.53;55.39;98893.84;329805;29;4688;-76
2022/08/26 00:23:30;;;;;;;389.58;322.15;;;;;;;26.53;55.76;98893.84;328082;30;1242;-76
2022/08/26 00:23:40;;;;;;;392.73;319.43;;;;;;;26.53;55.78;98888.47;329098;30;1627;-76
2022/08/26 00:23:51;;;;;;;392.17;321.88;;;;;;;26.53;55.82;98888.47;329162;29;1416;-76
2022/08/26 00:24:01;;;;;;;392.63;326.97;;;;;;;26.55;55.43;98891.81;327778;30;2027;-75
2022/08/26 00:24:12;;;;;;;391.17;327.60;;;;;;;26.55;55.71;98891.81;326873;30;1332;-75
2022/08/26 00:24:22;;;;;;;394.63;327.40;;;;;;;26.56;55.62;98898.00;326517;30;2035;-75
2022/08/26 00:24:33;;;;;;;393.48;324.38;;;;;;;26.54;55.90;98895.50;326665;30;2368;-75
2022/08/26 00:24:43;;;;;;;391.23;319.60;;;;;;;26.51;55.51;98896.69;324495;30;1284;-75
2022/08/26 00:24:54;;;;;;;387.85;316.58;;;;;;;26.51;55.46;98885.13;324892;30;2613;-75
2022/08/26 00:25:05;;;;;;;386.30;317.40;;;;;;;26.51;55.74;98890.50;328480;29;2920;-75
2022/08/26 00:25:15;;;;;;;387.42;319.95;;;;;;;26.52;55.24;98892.16;326870;30;996;-75
2022/08/26 00:25:26;;;;;;;387.33;323.13;;;;;;;26.52;55.62;98895.69;328076;30;926;-75
2022/08/26 00:25:36;;;;;;;389.53;323.50;;;;;;;26.52;55.30;98892.16;327404;30;1548;-75
2022/08/26 00:25:47;;;;;;;387.52;319.25;;;;;;;26.51;55.65;98898.56;327698;30;1555;-75
2022/08/26 00:25:57;;;;;;;389.23;318.63;;;;;;;26.52;55.64;98894.84;325505;30;1313;-75
2022/08/26 00:26:08;;;;;;;388.05;315.65;;;;;;;26.53;55.38;98893.84;326666;30;2126;-75
2022/08/26 00:26:18;;;;;;;392.23;323.40;;;;;;;26.51;55.77;98891.34;325631;30;2262;-76
2022/08/26 00:26:29;;;;;;;392.27;324.88;;;;;;;26.52;55.49;98886.81;327934;30;1317;-75
2022/08/26 00:26:39;;;;;;;393.80;332.40;;;;;;;26.50;55.40;98888.84;328560;30;2708;-75
2022/08/26 00:26:50;;;;;;;391.55;330.23;;;;;;;26.51;55.34;98898.56;324449;30;3386;-75
2022/08/26 00:27:00;;;;;;;391.47;330.73;;;;;;;26.52;55.09;98895.69;323276;30;922;-76
2022/08/26 00:27:11;;;;;;;386.85;326.02;;;;;;;26.51;55.63;98891.34;322042;30;1484;-76
2022/08/26 00:27:21;;;;;;;388.57;323.73;;;;;;;26.51;55.60;98896.69;323082;30;2488;-75
2022/08/26 00:27:32;;;;;;;388.15;322.25;;;;;;;26.50;55.27;98888.84;318220;30;3284;-75
2022/08/26 00:27:43;;;;;;;388.63;322.42;;;;;;;26.50;55.84;98888.84;320699;30;2087;-75
2022/08/26 00:27:53;;;;;;;383.27;318.70;;;;;;;26.51;55.76;98895.88;322817;30;2028;-75
2022/08/26 00:28:04;;;;;;;385.63;323.60;;;;;;;26.51;56.21;98891.34;322360;30;2127;-75
2022/08/26 00:28:15;;;;;;;387.90;328.13;;;;;;;26.51;55.82;98896.69;316964;31;1294;-75
2022/08/26 00:28:25;;;;;;;390.27;330.73;;;;;;;26.51;55.58;98887.81;315281;31;2879;-75
2022/08/26 00:28:36;;;;;;;390.00;332.70;;;;;;;26.51;55.55;98887.81;314430;31;3411;-75
2022/08/26 00:28:46;;;;;;;389.30;328.98;;;;;;;26.51;55.34;98887.81;312202;31;3767;-75
2022/08/26 00:28:57;;;;;;;387.77;322.57;;;;;;;26.53;55.20;98893.84;311786;31;1233;-75
2022/08/26 00:29:07;;;;;;;392.02;320.30;;;;;;;26.52;55.31;98894.84;312481;31;4634;-75
2022/08/26 00:29:18;;;;;;;392.70;324.00;;;;;;;26.52;55.47;98893.00;311452;31;4746;-75
2022/08/26 00:29:30;;;;;;;392.25;326.23;;;;;;;26.52;55.55;98893.00;311657;31;1665;-75
2022/08/26 00:29:41;;;;;;;388.88;327.17;;;;;;;26.51;55.73;98893.19;307345;32;2484;-75
2022/08/26 00:29:51;;;;;;;387.95;327.88;;;;;;;26.51;55.38;98890.50;303716;32;3806;-75
2022/08/26 00:30:06;;;;;;;388.90;330.40;;;;;;;26.50;55.55;98894.19;305032;32;2644;-76
2022/08/26 00:30:20;;;;;;;389.65;327.65;;;;;;;26.51;55.65;98895.88;301808;32;3630;-75
2022/08/26 00:30:30;;;;;;;389.05;321.95;;;;;;;26.51;55.35;98888.66;297928;33;3132;-75
2022/08/26 00:30:41;;;;;;;390.37;323.07;;;;;;;26.52;55.60;98887.63;293529;33;2228;-75
2022/08/26 00:30:51;;;;;;;387.05;319.13;;;;;;;26.54;55.27;98895.50;295081;33;5249;-75
2022/08/26 00:31:02;;;;;;;387.30;317.80;;;;;;;26.55;55.37;98893.66;291044;33;5525;-75
2022/08/26 00:31:13;;;;;;;386.63;318.55;;;;;;;26.56;55.59;98898.84;288294;34;1425;-75
2022/08/26 00:31:23;;;;;;;387.95;320.05;;;;;;;26.55;55.13;98894.50;289148;33;6450;-75
2022/08/26 00:31:34;;;;;;;386.17;320.03;;;;;;;26.52;55.44;98886.81;286948;34;7086;-75
2022/08/26 00:31:44;;;;;;;388.85;322.65;;;;;;;26.49;55.46;98887.16;285332;34;1600;-75
2022/08/26 00:31:54;;;;;;;389.73;326.23;;;;;;;26.47;55.40;98889.19;280239;34;6542;-76
2022/08/26 00:32:05;;;;;;;389.88;326.35;;;;;;;26.44;55.49;98887.72;279912;34;4890;-75
2022/08/26 00:32:15;;;;;;;389.03;324.20;;;;;;;26.45;55.89;98891.22;282166;34;4396;-75
2022/08/26 00:32:26;;;;;;;392.75;327.83;;;;;;;26.47;55.88;98894.56;281034;35;3994;-75
2022/08/26 00:32:36;;;;;;;395.30;329.50;;;;;;;26.46;55.35;98887.53;280184;34;6461;-75
2022/08/26 00:32:47;;;;;;;395.23;330.35;;;;;;;26.47;55.86;98886.50;278619;34;6761;-75
2022/08/26 00:32:57;;;;;;;394.70;330.03;;;;;;;26.45;55.88;98892.06;279957;35;1232;-75
2022/08/26 00:33:08;;;;;;;394.90;330.73;;;;;;;26.45;55.74;98888.53;278648;35;7805;-75
2022/08/26 00:33:18;;;;;;;393.90;328.85;;;;;;;26.45;56.05;98892.06;277218;35;8076;-75
2022/08/26 00:33:29;;;;;;;392.85;325.50;;;;;;;26.45;56.03;98888.53;278991;35;978;-75
2022/08/26 00:33:39;;;;;;;391.07;320.53;;;;;;;26.45;56.04;98892.06;275280;35;9022;-75
2022/08/26 00:33:50;;;;;;;388.50;318.30;;;;;;;26.44;55.98;98889.56;273131;35;9827;-75
2022/08/26 00:34:00;;;;;;;388.00;315.93;;;;;;;26.43;56.07;98887.88;273023;36;1353;-76
2022/08/26 00:34:11;;;;;;;389.08;314.42;;;;;;;26.43;55.83;98887.88;270601;36;855;-76
2022/08/26 00:36:05;;;;;;;313.96;258.99;;;;;;;26.47;55.62;98894.56;2494515;27;20490;-75
2022/08/26 00:36:16;;;;;;;388.13;329.23;;;;;;;26.47;55.94;98891.88;352770;28;2037;-75
2022/08/26 00:36:27;;;;;;;387.20;326.33;;;;;;;26.50;55.93;98896.88;350265;28;2081;-75
2022/08/26 00:36:38;;;;;;;386.85;326.38;;;;;;;26.50;55.76;98891.53;349481;28;3092;-75
2022/08/26 00:36:48;;;;;;;386.17;328.73;;;;;;;26.51;55.93;98891.34;346145;28;1010;-75
2022/08/26 00:36:59;;;;;;;386.23;331.30;;;;;;;26.52;55.81;98884.13;347074;28;1769;-75
2022/08/26 00:37:10;;;;;;;385.90;331.60;;;;;;;26.53;55.30;98888.47;348261;28;1370;-75
2022/08/26 00:37:20;;;;;;;382.40;324.75;;;;;;;26.54;56.00;98892.81;348852;28;1212;-75
2022/08/26 00:37:31;;;;;;;382.20;324.43;;;;;;;26.54;55.48;98884.78;348874;28;960;-75
2022/08/26 00:37:41;;;;;;;382.30;316.38;;;;;;;26.54;55.43;98883.94;347206;28;1858;-75
2022/08/26 00:37:52;;;;;;;386.13;320.43;;;;;;;26.54;55.87;98890.13;346127;28;1715;-75
2022/08/26 00:38:02;;;;;;;387.85;322.35;;;;;;;26.56;55.53;98884.59;346195;28;903;-75
2022/08/26 00:38:13;;;;;;;388.13;326.33;;;;;;;26.55;55.92;98894.50;348764;28;1301;-75
2022/08/26 00:38:23;;;;;;;385.83;323.20;;;;;;;26.53;55.84;98888.47;347445;28;1355;-75
2022/08/26 00:38:37;;;;;;;383.83;324.47;;;;;;;26.54;55.75;98887.47;346081;28;1758;-75
2022/08/26 00:38:47;;;;;;;379.67;324.30;;;;;;;26.55;55.70;98885.59;344596;28;1485;-75
2022/08/26 00:38:58;;;;;;;381.27;327.40;;;;;;;26.54;55.91;98890.13;343539;28;5058;-75
2022/08/26 00:39:08;;;;;;;382.02;325.20;;;;;;;26.56;55.93;98887.28;345417;28;4805;-75
2022/08/26 00:39:19;;;;;;;384.25;323.33;;;;;;;26.56;55.56;98888.09;344691;28;2909;-75
2022/08/26 00:39:30;;;;;;;382.93;317.67;;;;;;;26.56;55.50;98881.91;345571;28;2174;-75
2022/08/26 00:39:40;;;;;;;386.40;315.05;;;;;;;26.55;55.91;98889.13;343071;28;5373;-75
2022/08/26 00:39:51;;;;;;;387.83;313.23;;;;;;;26.56;55.40;98887.28;346946;28;1206;-75
2022/08/26 00:40:02;;;;;;;386.80;314.48;;;;;;;26.53;55.90;98883.09;343646;28;1767;-75
2022/08/26 00:40:16;;;;;;;386.83;318.73;;;;;;;26.49;55.71;98892.53;344568;28;1318;-75
2022/08/26 00:40:35;;;;;;;388.77;323.25;;;;;;;26.43;56.12;98891.41;340222;29;1008;-75
2022/08/26 00:40:47;;;;;;;391.13;330.55;;;;;;;26.44;55.78;98886.88;343458;28;1515;-75
2022/08/26 00:40:58;;;;;;;389.52;327.30;;;;;;;26.46;55.81;98887.53;343365;28;1545;-75
2022/08/26 00:41:08;;;;;;;388.35;327.13;;;;;;;26.46;55.72;98887.53;341983;28;1484;-75
2022/08/26 00:41:18;;;;;;;386.33;325.77;;;;;;;26.46;55.97;98892.91;339393;29;1365;-75
2022/08/26 00:41:29;;;;;;;383.63;321.70;;;;;;;26.48;55.59;98890.88;341072;28;3695;-75
2022/08/26 00:41:39;;;;;;;382.73;321.00;;;;;;;26.48;55.55;98882.81;338644;28;891;-75
2022/08/26 00:41:50;;;;;;;387.40;329.73;;;;;;;26.51;55.84;98893.19;341992;28;1219;-75
2022/08/26 00:42:00;;;;;;;391.77;334.03;;;;;;;26.49;56.01;98896.06;341855;28;2420;-75
2022/08/26 00:42:11;;;;;;;392.65;331.15;;;;;;;26.49;55.81;98889.84;344880;28;1305;-75
2022/08/26 00:42:21;;;;;;;392.40;327.17;;;;;;;26.48;55.76;98890.88;343395;28;1202;-75
2022/08/26 00:42:32;;;;;;;388.85;326.88;;;;;;;26.48;55.62;98890.88;343140;28;1123;-75
2022/08/26 00:42:43;;;;;;;389.53;329.87;;;;;;;26.48;56.46;98890.88;341502;28;1951;-75
2022/08/26 00:42:53;;;;;;;387.75;328.45;;;;;;;26.47;55.67;98891.88;340837;28;1012;-75
2022/08/26 00:43:04;;;;;;;392.27;334.48;;;;;;;26.46;55.77;98887.53;342261;28;977;-75
2022/08/26 00:43:14;;;;;;;392.03;334.90;;;;;;;26.44;55.87;98886.88;343423;28;1194;-75
2022/08/26 00:43:25;;;;;;;392.10;337.97;;;;;;;26.45;55.81;98888.53;343417;28;912;-75
2022/08/26 00:43:38;;;;;;;388.97;330.67;;;;;;;26.46;55.98;98892.91;340910;29;900;-75
2022/08/26 00:43:49;;;;;;;387.27;325.08;;;;;;;26.47;56.15;98889.19;337269;29;1409;-75
2022/08/26 00:44:00;;;;;;;385.52;321.35;;;;;;;26.46;55.92;98887.53;344124;28;1325;-75
2022/08/26 00:44:10;;;;;;;385.90;320.87;;;;;;;26.47;56.11;98894.56;346253;28;1379;-75
2022/08/26 00:44:21;;;;;;;382.27;317.80;;;;;;;26.47;55.70;98890.03;346193;28;936;-75
2022/08/26 00:44:31;;;;;;;384.73;316.23;;;;;;;26.45;55.98;98886.69;345721;28;1926;-75
2022/08/26 00:44:41;;;;;;;382.08;315.55;;;;;;;26.44;56.18;98893.06;341816;28;1575;-75
2022/08/26 00:44:52;;;;;;;386.07;319.60;;;;;;;26.45;55.83;98891.22;339498;29;1100;-75
2022/08/26 00:45:03;;;;;;;384.90;316.65;;;;;;;26.45;55.83;98891.22;339340;29;1433;-75
2022/08/26 00:45:14;;;;;;;385.17;319.40;;;;;;;26.45;55.88;98891.22;339406;29;1890;-76
2022/08/26 00:45:24;;;;;;;383.83;320.00;;;;;;;26.47;55.85;98894.56;341831;28;1503;-76
2022/08/26 00:45:43;;;;;;;382.05;319.90;;;;;;;26.48;55.88;98896.22;342066;28;1229;-76
2022/08/26 00:46:00;;;;;;;383.18;318.32;;;;;;;26.49;55.69;98893.38;340374;28;2085;-76
2022/08/26 00:46:24;;;;;;;385.65;320.65;;;;;;;26.51;55.91;98898.56;339168;29;1704;-76
2022/08/26 00:46:38;;;;;;;390.40;320.65;;;;;;;26.50;55.67;98897.72;334180;29;1284;-76
2022/08/26 00:46:57;;;;;;;384.40;324.65;;;;;;;26.51;56.07;98894.03;328004;30;1392;-76
2022/08/26 00:47:10;;;;;;;382.77;333.58;;;;;;;26.51;55.59;98887.81;329363;30;988;-76
2022/08/26 00:47:28;;;;;;;389.33;339.20;;;;;;;26.51;55.83;98891.34;324495;30;1271;-76
2022/08/26 00:47:44;;;;;;;392.08;332.10;;;;;;;26.53;55.92;98888.47;326036;30;1497;-76
2022/08/26 00:48:00;;;;;;;386.98;327.95;;;;;;;26.53;55.88;98888.47;323229;30;1846;-76
2022/08/26 00:48:11;;;;;;;385.55;324.88;;;;;;;26.52;55.71;98893.00;317388;30;3148;-76
2022/08/26 00:48:23;;;;;;;384.13;319.17;;;;;;;26.52;55.78;98886.81;321609;30;2846;-76
2022/08/26 00:48:33;;;;;;;389.70;330.80;;;;;;;26.51;55.67;98890.50;317070;30;2421;-76
2022/08/26 00:48:44;;;;;;;387.25;332.20;;;;;;;26.51;55.86;98893.19;315433;31;3138;-76
2022/08/26 00:49:04;;;;;;;388.83;338.92;;;;;;;26.52;55.66;98892.16;314331;31;2734;-76
2022/08/26 00:49:35;;;;;;;391.67;333.80;;;;;;;26.51;56.03;98880.59;316953;31;2836;-76
2022/08/26 00:49:46;;;;;;;385.35;327.30;;;;;;;26.52;55.99;98886.81;313366;31;1376;-77
2022/08/26 00:49:57;;;;;;;385.58;323.10;;;;;;;26.53;55.78;98888.47;312653;31;2099;-76
2022/08/26 00:50:11;;;;;;;387.95;323.65;;;;;;;26.54;55.87;98890.13;307780;32;987;-76
2022/08/26 00:50:24;;;;;;;390.38;327.27;;;;;;;26.54;55.42;98886.63;310721;31;1003;-76
2022/08/26 00:50:39;;;;;;;390.92;327.85;;;;;;;26.55;55.70;98880.25;306221;32;3346;-76
2022/08/26 00:50:54;;;;;;;389.77;329.02;;;;;;;26.53;55.93;98880.41;300003;32;3533;-76
2022/08/26 00:51:21;;;;;;;395.15;333.38;;;;;;;26.45;55.83;98881.31;300756;32;2349;-75
2022/08/26 00:51:31;;;;;;;389.00;320.20;;;;;;;26.44;56.22;98885.03;302769;32;3585;-75
2022/08/26 00:51:48;;;;;;;389.70;323.20;;;;;;;26.44;55.84;98878.81;297227;33;3253;-75
2022/08/26 00:52:00;;;;;;;383.95;322.00;;;;;;;26.45;56.17;98880.50;294396;33;2272;-75
2022/08/26 00:52:15;;;;;;;381.88;319.48;;;;;;;26.46;56.16;98883.00;291809;33;2851;-75
2022/08/26 00:52:26;;;;;;;386.75;325.67;;;;;;;26.47;55.80;98878.47;291749;33;3526;-75
2022/08/26 00:52:36;;;;;;;388.65;328.13;;;;;;;26.47;56.02;98883.81;292142;33;905;-75
2022/08/26 00:52:46;;;;;;;392.17;329.47;;;;;;;26.47;55.79;98881.16;292569;33;4208;-75
2022/08/26 00:52:57;;;;;;;389.65;329.13;;;;;;;26.48;56.28;98872.06;293270;33;4689;-76
2022/08/26 00:53:20;;;;;;;385.90;328.95;;;;;;;26.49;55.80;98879.13;297124;33;865;-76
2022/08/26 00:53:33;;;;;;;384.70;327.95;;;;;;;26.48;56.16;98880.97;293958;33;5122;-76
2022/08/26 00:53:54;;;;;;;387.48;333.48;;;;;;;26.47;55.94;98881.97;290000;33;4854;-76
2022/08/26 00:54:05;;;;;;;390.08;332.75;;;;;;;26.48;55.50;98882.81;286398;34;916;-76
2022/08/26 00:54:16;;;;;;;389.63;330.05;;;;;;;26.49;56.05;98884.47;284717;34;3914;-76
2022/08/26 00:54:27;;;;;;;388.00;330.40;;;;;;;26.48;55.91;98880.97;284035;34;4165;-76
2022/08/26 00:54:39;;;;;;;385.85;328.58;;;;;;;26.48;55.98;98885.50;283614;34;873;-76
2022/08/26 00:54:58;;;;;;;386.75;329.00;;;;;;;26.49;55.99;98884.47;278445;35;3454;-76
2022/08/26 00:55:15;;;;;;;388.55;326.92;;;;;;;26.49;55.76;98889.84;275455;35;6564;-76
2022/08/26 00:55:32;;;;;;;387.77;335.60;;;;;;;26.48;56.10;98883.66;272133;35;7032;-76
2022/08/26 00:55:42;;;;;;;390.52;336.42;;;;;;;26.49;56.02;98889.84;271827;35;6508;-76
2022/08/26 00:56:08;;;;;;;388.95;331.50;;;;;;;26.48;55.96;98880.97;275614;35;947;-76
2022/08/26 00:56:34;;;;;;;389.52;329.65;;;;;;;26.48;55.88;98891.69;277155;35;5261;-75
2022/08/26 00:56:55;;;;;;;386.55;329.88;;;;;;;26.48;55.85;98890.88;277200;35;6366;-75